CCA1535 ZYHB-ZSAM
Flight info
| Callsign | CCA1535 |
|---|---|
| Flight time | 3h 29m |
| Altitude | 36100 |
| Route | DUKIR W655 ENPEN W658 LEMOT A588 UDETI W202 DOBGA V68 TEKAM W172 FD W174 XDX B221 ODULO V2 HSH G455 PK W116 JTN G204 SHZ B221 LJG A470 ENVEN |
| Aircraft | A339/H-SADE1E2E3GHIJ1J3J5M1P2RWXY/LB1 |
Departure
| Time | 2026-04-27 08:54 |
|---|---|
| Airport | Harbin Taiping International Airport (ZYHB) |
Arrival
| Time | 2026-04-27 12:24 |
|---|---|
| Airport | Xiamen Gaoqi International Airport (ZSAM) |
| Time | Latitude | Longitude | Altitude | Speed | Heading |
|---|---|---|---|---|---|
| 2026-04-27 08:38 | 45.61522 | 126.23325 | 517 ft | 0 kts | 359° |
| 2026-04-27 08:46 | 45.61514 | 126.23325 | 517 ft | 2 kts | 0° |
| 2026-04-27 08:46 | 45.61499 | 126.23325 | 517 ft | 2 kts | 359° |
| 2026-04-27 08:47 | 45.61484 | 126.23323 | 518 ft | 2 kts | 22° |
| 2026-04-27 08:47 | 45.61471 | 126.23312 | 517 ft | 2 kts | 43° |
| 2026-04-27 08:47 | 45.61462 | 126.23296 | 517 ft | 2 kts | 64° |
| 2026-04-27 08:47 | 45.61457 | 126.23275 | 517 ft | 2 kts | 85° |
| 2026-04-27 08:48 | 45.61458 | 126.23254 | 517 ft | 2 kts | 105° |
| 2026-04-27 08:48 | 45.61463 | 126.23235 | 517 ft | 1 kts | 126° |
| 2026-04-27 08:48 | 45.61467 | 126.23229 | 518 ft | 0 kts | 128° |
| 2026-04-27 08:51 | 45.61462 | 126.23238 | 517 ft | 2 kts | 127° |
| 2026-04-27 08:51 | 45.61447 | 126.23265 | 517 ft | 4 kts | 127° |
| 2026-04-27 08:51 | 45.61422 | 126.23311 | 517 ft | 6 kts | 129° |
| 2026-04-27 08:51 | 45.61388 | 126.23370 | 517 ft | 8 kts | 129° |
| 2026-04-27 08:52 | 45.61348 | 126.23440 | 517 ft | 8 kts | 129° |
| 2026-04-27 08:52 | 45.61299 | 126.23502 | 517 ft | 10 kts | 142° |
| 2026-04-27 08:52 | 45.61263 | 126.23550 | 517 ft | 6 kts | 122° |
| 2026-04-27 08:52 | 45.61251 | 126.23621 | 517 ft | 8 kts | 85° |
| 2026-04-27 08:53 | 45.61260 | 126.23697 | 517 ft | 8 kts | 74° |
| 2026-04-27 08:53 | 45.61283 | 126.23772 | 517 ft | 5 kts | 57° |
| 2026-04-27 08:53 | 45.61315 | 126.23816 | 517 ft | 7 kts | 38° |
| 2026-04-27 08:53 | 45.61486 | 126.24014 | 517 ft | 63 kts | 39° |
| 2026-04-27 08:54 | 45.61990 | 126.24605 | 518 ft | 121 kts | 39° |
| 2026-04-27 08:54 | 45.62772 | 126.25525 | 555 ft | 164 kts | 38° |
| 2026-04-27 08:54 | 45.63652 | 126.26573 | 1157 ft | 161 kts | 38° |
| 2026-04-27 08:54 | 45.64612 | 126.27116 | 1876 ft | 151 kts | 351° |
| 2026-04-27 08:55 | 45.65528 | 126.26486 | 2487 ft | 148 kts | 320° |
| 2026-04-27 08:55 | 45.66126 | 126.25278 | 2957 ft | 151 kts | 300° |
| 2026-04-27 08:55 | 45.66555 | 126.23888 | 3354 ft | 155 kts | 298° |
| 2026-04-27 08:55 | 45.66981 | 126.22463 | 3746 ft | 159 kts | 299° |
| 2026-04-27 08:56 | 45.67449 | 126.20962 | 4022 ft | 172 kts | 299° |
| 2026-04-27 08:56 | 45.67974 | 126.19320 | 4314 ft | 187 kts | 299° |
| 2026-04-27 08:56 | 45.68539 | 126.17577 | 4607 ft | 202 kts | 299° |
| 2026-04-27 08:56 | 45.69163 | 126.15659 | 4919 ft | 220 kts | 298° |
| 2026-04-27 08:57 | 45.69533 | 126.10991 | 5587 ft | 263 kts | 264° |
| 2026-04-27 08:57 | 45.69214 | 126.08321 | 6056 ft | 278 kts | 262° |
| 2026-04-27 08:57 | 45.68861 | 126.05601 | 6789 ft | 281 kts | 262° |
| 2026-04-27 08:58 | 45.68519 | 126.02893 | 7555 ft | 282 kts | 263° |
| 2026-04-27 08:58 | 45.68181 | 126.00115 | 8316 ft | 284 kts | 263° |
| 2026-04-27 08:58 | 45.67852 | 125.97340 | 9056 ft | 287 kts | 263° |
| 2026-04-27 08:58 | 45.67519 | 125.94505 | 9798 ft | 290 kts | 263° |
| 2026-04-27 08:59 | 45.67188 | 125.91697 | 10514 ft | 292 kts | 263° |
| 2026-04-27 08:59 | 45.66522 | 125.88881 | 11028 ft | 308 kts | 242° |
| 2026-04-27 08:59 | 45.65060 | 125.86530 | 11345 ft | 329 kts | 221° |
| 2026-04-27 08:59 | 45.63216 | 125.84444 | 11661 ft | 346 kts | 220° |
| 2026-04-27 09:00 | 45.61279 | 125.82290 | 12084 ft | 359 kts | 220° |
| 2026-04-27 09:00 | 45.59301 | 125.80056 | 12732 ft | 364 kts | 221° |
| 2026-04-27 09:00 | 45.57334 | 125.77805 | 13389 ft | 369 kts | 221° |
| 2026-04-27 09:00 | 45.55328 | 125.75494 | 14033 ft | 374 kts | 222° |
| 2026-04-27 09:01 | 45.53313 | 125.73167 | 14684 ft | 378 kts | 222° |
| 2026-04-27 09:01 | 45.51256 | 125.70793 | 15403 ft | 381 kts | 222° |
| 2026-04-27 09:01 | 45.49189 | 125.68411 | 16124 ft | 383 kts | 223° |
| 2026-04-27 09:01 | 45.47122 | 125.66031 | 16830 ft | 386 kts | 223° |
| 2026-04-27 09:02 | 45.45028 | 125.63666 | 17514 ft | 390 kts | 219° |
| 2026-04-27 09:02 | 45.42561 | 125.62035 | 18126 ft | 401 kts | 195° |
| 2026-04-27 09:02 | 45.39731 | 125.61934 | 18829 ft | 407 kts | 170° |
| 2026-04-27 09:02 | 45.37058 | 125.63139 | 19536 ft | 409 kts | 160° |
| 2026-04-27 09:03 | 45.34410 | 125.64628 | 20161 ft | 413 kts | 159° |
| 2026-04-27 09:03 | 45.31719 | 125.66107 | 20763 ft | 417 kts | 160° |
| 2026-04-27 09:03 | 45.28978 | 125.67531 | 21365 ft | 420 kts | 162° |
| 2026-04-27 09:03 | 45.26226 | 125.68911 | 21941 ft | 423 kts | 162° |
| 2026-04-27 09:04 | 45.23414 | 125.70304 | 22519 ft | 426 kts | 162° |
| 2026-04-27 09:04 | 45.20623 | 125.71681 | 23084 ft | 429 kts | 163° |
| 2026-04-27 09:04 | 45.17786 | 125.73080 | 23628 ft | 432 kts | 163° |
| 2026-04-27 09:04 | 45.14945 | 125.74483 | 24158 ft | 435 kts | 163° |
| 2026-04-27 09:05 | 45.12110 | 125.75881 | 24675 ft | 438 kts | 163° |
| 2026-04-27 09:05 | 45.09224 | 125.77303 | 25169 ft | 441 kts | 163° |
| 2026-04-27 09:05 | 45.06288 | 125.78748 | 25669 ft | 444 kts | 163° |
| 2026-04-27 09:05 | 45.03363 | 125.80188 | 26172 ft | 446 kts | 163° |
| 2026-04-27 09:06 | 45.00423 | 125.81632 | 26666 ft | 448 kts | 163° |
| 2026-04-27 09:06 | 44.97485 | 125.83073 | 27124 ft | 450 kts | 163° |
| 2026-04-27 09:06 | 44.94548 | 125.84515 | 27569 ft | 452 kts | 164° |
| 2026-04-27 09:06 | 44.91571 | 125.85970 | 28016 ft | 454 kts | 164° |
| 2026-04-27 09:07 | 44.88566 | 125.87439 | 28437 ft | 456 kts | 164° |
| 2026-04-27 09:07 | 44.85547 | 125.88910 | 28852 ft | 458 kts | 164° |
| 2026-04-27 09:07 | 44.82545 | 125.90375 | 29255 ft | 460 kts | 164° |
| 2026-04-27 09:07 | 44.79502 | 125.91825 | 29635 ft | 461 kts | 167° |
| 2026-04-27 09:08 | 44.76358 | 125.92863 | 30017 ft | 460 kts | 174° |
| 2026-04-27 09:08 | 44.73201 | 125.93358 | 30392 ft | 457 kts | 181° |
| 2026-04-27 09:08 | 44.70024 | 125.93324 | 30762 ft | 455 kts | 188° |
| 2026-04-27 09:08 | 44.66900 | 125.92801 | 31141 ft | 453 kts | 193° |
| 2026-04-27 09:09 | 44.63769 | 125.92106 | 31507 ft | 453 kts | 194° |
| 2026-04-27 09:09 | 44.60650 | 125.91391 | 31831 ft | 454 kts | 194° |
| 2026-04-27 09:09 | 44.57553 | 125.90690 | 32248 ft | 453 kts | 193° |
| 2026-04-27 09:09 | 44.54427 | 125.89998 | 32640 ft | 453 kts | 193° |
| 2026-04-27 09:10 | 44.51334 | 125.89319 | 32976 ft | 453 kts | 193° |
| 2026-04-27 09:10 | 44.48203 | 125.88634 | 33284 ft | 454 kts | 193° |
| 2026-04-27 09:10 | 44.45073 | 125.87950 | 33630 ft | 454 kts | 192° |
| 2026-04-27 09:10 | 44.41943 | 125.87267 | 33935 ft | 454 kts | 192° |
| 2026-04-27 09:11 | 44.38827 | 125.86588 | 34220 ft | 454 kts | 192° |
| 2026-04-27 09:11 | 44.35735 | 125.85915 | 34432 ft | 456 kts | 192° |
| 2026-04-27 09:11 | 44.32573 | 125.85228 | 34620 ft | 459 kts | 192° |
| 2026-04-27 09:11 | 44.29403 | 125.84542 | 34833 ft | 461 kts | 192° |
| 2026-04-27 09:12 | 44.26227 | 125.83854 | 35025 ft | 462 kts | 192° |
| 2026-04-27 09:12 | 44.23045 | 125.83165 | 35182 ft | 464 kts | 192° |
| 2026-04-27 09:12 | 44.19846 | 125.82477 | 35365 ft | 465 kts | 192° |
| 2026-04-27 09:12 | 44.16639 | 125.81785 | 35565 ft | 465 kts | 192° |
| 2026-04-27 09:13 | 44.13467 | 125.81118 | 35769 ft | 466 kts | 191° |
| 2026-04-27 09:13 | 44.10221 | 125.80634 | 35946 ft | 467 kts | 187° |
| 2026-04-27 09:13 | 44.07002 | 125.80402 | 36055 ft | 470 kts | 184° |
| 2026-04-27 09:14 | 44.00464 | 125.80319 | 36077 ft | 470 kts | 184° |
| 2026-04-27 09:14 | 43.93922 | 125.80241 | 36082 ft | 469 kts | 184° |
| 2026-04-27 09:15 | 43.87402 | 125.79872 | 36067 ft | 466 kts | 190° |
| 2026-04-27 09:15 | 43.81072 | 125.78258 | 36067 ft | 461 kts | 199° |
| 2026-04-27 09:16 | 43.75038 | 125.75364 | 36052 ft | 456 kts | 207° |
| 2026-04-27 09:16 | 43.69423 | 125.71438 | 36037 ft | 453 kts | 212° |
| 2026-04-27 09:17 | 43.63862 | 125.67304 | 36045 ft | 452 kts | 212° |
| 2026-04-27 09:17 | 43.58342 | 125.63226 | 36060 ft | 450 kts | 212° |
| 2026-04-27 09:18 | 43.52795 | 125.59183 | 36031 ft | 451 kts | 211° |
| 2026-04-27 09:18 | 43.47242 | 125.55264 | 36039 ft | 449 kts | 212° |
| 2026-04-27 09:19 | 43.41713 | 125.51355 | 36043 ft | 448 kts | 212° |
| 2026-04-27 09:19 | 43.36167 | 125.47431 | 36021 ft | 447 kts | 211° |
| 2026-04-27 09:20 | 43.30633 | 125.43525 | 36062 ft | 447 kts | 211° |
| 2026-04-27 09:20 | 43.25112 | 125.39635 | 36034 ft | 445 kts | 212° |
| 2026-04-27 09:21 | 43.19607 | 125.35767 | 36047 ft | 445 kts | 212° |
| 2026-04-27 09:21 | 43.14097 | 125.31902 | 36035 ft | 444 kts | 211° |
| 2026-04-27 09:22 | 43.08617 | 125.28067 | 36040 ft | 443 kts | 211° |
| 2026-04-27 09:22 | 43.03148 | 125.24246 | 36037 ft | 442 kts | 211° |
| 2026-04-27 09:23 | 42.97456 | 125.20942 | 36039 ft | 447 kts | 202° |
| 2026-04-27 09:23 | 42.91417 | 125.18838 | 36041 ft | 451 kts | 197° |
| 2026-04-27 09:24 | 42.85254 | 125.17078 | 36047 ft | 450 kts | 197° |
| 2026-04-27 09:24 | 42.79244 | 125.15057 | 36037 ft | 445 kts | 203° |
| 2026-04-27 09:25 | 42.73551 | 125.11822 | 36039 ft | 440 kts | 211° |
| 2026-04-27 09:25 | 42.68116 | 125.08039 | 36038 ft | 439 kts | 211° |
| 2026-04-27 09:26 | 42.62692 | 125.04261 | 36027 ft | 439 kts | 211° |
| 2026-04-27 09:26 | 42.57270 | 125.00494 | 36026 ft | 438 kts | 212° |
| 2026-04-27 09:27 | 42.51848 | 124.96733 | 36028 ft | 438 kts | 212° |
| 2026-04-27 09:27 | 42.46427 | 124.92983 | 36023 ft | 438 kts | 212° |
| 2026-04-27 09:28 | 42.41013 | 124.89244 | 36018 ft | 437 kts | 212° |
| 2026-04-27 09:28 | 42.35584 | 124.85505 | 36014 ft | 437 kts | 212° |
| 2026-04-27 09:29 | 42.30182 | 124.81789 | 36023 ft | 437 kts | 212° |
| 2026-04-27 09:29 | 42.24744 | 124.78054 | 36016 ft | 437 kts | 212° |
| 2026-04-27 09:30 | 42.19342 | 124.74355 | 36018 ft | 436 kts | 212° |
| 2026-04-27 09:30 | 42.13925 | 124.70650 | 36023 ft | 436 kts | 212° |
| 2026-04-27 09:31 | 42.08530 | 124.66969 | 36018 ft | 436 kts | 212° |
| 2026-04-27 09:31 | 42.03117 | 124.63284 | 36016 ft | 436 kts | 212° |
| 2026-04-27 09:32 | 41.97707 | 124.59558 | 36012 ft | 435 kts | 214° |
| 2026-04-27 09:32 | 41.92477 | 124.55556 | 36011 ft | 434 kts | 214° |
| 2026-04-27 09:33 | 41.87244 | 124.51568 | 36012 ft | 434 kts | 214° |
| 2026-04-27 09:33 | 41.81974 | 124.47556 | 36010 ft | 434 kts | 214° |
| 2026-04-27 09:34 | 41.76712 | 124.43554 | 35999 ft | 434 kts | 215° |
| 2026-04-27 09:34 | 41.71468 | 124.39568 | 36061 ft | 437 kts | 215° |
| 2026-04-27 09:34 | 41.68828 | 124.37570 | 36280 ft | 437 kts | 215° |
| 2026-04-27 09:35 | 41.66159 | 124.35551 | 36524 ft | 437 kts | 215° |
| 2026-04-27 09:35 | 41.63539 | 124.33569 | 36716 ft | 438 kts | 214° |
| 2026-04-27 09:35 | 41.60863 | 124.31546 | 36881 ft | 439 kts | 214° |
| 2026-04-27 09:35 | 41.58238 | 124.29562 | 37022 ft | 441 kts | 214° |
| 2026-04-27 09:36 | 41.55541 | 124.27526 | 37195 ft | 442 kts | 214° |
| 2026-04-27 09:36 | 41.52863 | 124.25508 | 37364 ft | 443 kts | 215° |
| 2026-04-27 09:36 | 41.50189 | 124.23495 | 37497 ft | 445 kts | 215° |
| 2026-04-27 09:36 | 41.47487 | 124.21462 | 37632 ft | 447 kts | 215° |
| 2026-04-27 09:37 | 41.44774 | 124.19423 | 37819 ft | 447 kts | 215° |
| 2026-04-27 09:37 | 41.42058 | 124.17386 | 38009 ft | 447 kts | 215° |
| 2026-04-27 09:37 | 41.39368 | 124.15379 | 38109 ft | 449 kts | 215° |
| 2026-04-27 09:37 | 41.36606 | 124.13364 | 38223 ft | 452 kts | 214° |
| 2026-04-27 09:38 | 41.33836 | 124.11359 | 38396 ft | 453 kts | 214° |
| 2026-04-27 09:38 | 41.31053 | 124.09349 | 38620 ft | 453 kts | 214° |
| 2026-04-27 09:38 | 41.28308 | 124.07367 | 38872 ft | 452 kts | 214° |
| 2026-04-27 09:38 | 41.25545 | 124.05373 | 39145 ft | 451 kts | 214° |
| 2026-04-27 09:39 | 41.22785 | 124.03382 | 39382 ft | 450 kts | 214° |
| 2026-04-27 09:39 | 41.20035 | 124.01398 | 39578 ft | 450 kts | 214° |
| 2026-04-27 09:39 | 41.17281 | 123.99412 | 39780 ft | 450 kts | 214° |
| 2026-04-27 09:39 | 41.14524 | 123.97426 | 39957 ft | 450 kts | 214° |
| 2026-04-27 09:40 | 41.11767 | 123.95442 | 39969 ft | 451 kts | 214° |
| 2026-04-27 09:40 | 41.06262 | 123.91486 | 39978 ft | 450 kts | 214° |
| 2026-04-27 09:41 | 41.00759 | 123.87540 | 39978 ft | 450 kts | 214° |
| 2026-04-27 09:41 | 40.95247 | 123.83595 | 39968 ft | 449 kts | 215° |
| 2026-04-27 09:42 | 40.89766 | 123.79678 | 39986 ft | 449 kts | 215° |
| 2026-04-27 09:42 | 40.84281 | 123.75769 | 39965 ft | 448 kts | 215° |
| 2026-04-27 09:43 | 40.78812 | 123.71789 | 39963 ft | 447 kts | 216° |
| 2026-04-27 09:43 | 40.73390 | 123.67787 | 39963 ft | 446 kts | 216° |
| 2026-04-27 09:44 | 40.68003 | 123.63826 | 39963 ft | 447 kts | 216° |
| 2026-04-27 09:44 | 40.62564 | 123.59841 | 39962 ft | 446 kts | 216° |
| 2026-04-27 09:45 | 40.57164 | 123.55894 | 39950 ft | 445 kts | 216° |
| 2026-04-27 09:45 | 40.51760 | 123.51941 | 39962 ft | 444 kts | 216° |
| 2026-04-27 09:46 | 40.46347 | 123.47993 | 39961 ft | 443 kts | 216° |
| 2026-04-27 09:46 | 40.40976 | 123.44082 | 39962 ft | 444 kts | 216° |
| 2026-04-27 09:47 | 40.35576 | 123.40155 | 39954 ft | 443 kts | 216° |
| 2026-04-27 09:47 | 40.30203 | 123.36258 | 39957 ft | 442 kts | 216° |
| 2026-04-27 09:48 | 40.24799 | 123.32346 | 39954 ft | 442 kts | 215° |
| 2026-04-27 09:48 | 40.19418 | 123.28458 | 39943 ft | 442 kts | 215° |
| 2026-04-27 09:49 | 40.14016 | 123.24559 | 39946 ft | 442 kts | 215° |
| 2026-04-27 09:49 | 40.08653 | 123.20698 | 39955 ft | 443 kts | 215° |
| 2026-04-27 09:50 | 40.03281 | 123.16830 | 39944 ft | 441 kts | 215° |
| 2026-04-27 09:50 | 39.97913 | 123.12920 | 39954 ft | 441 kts | 216° |
| 2026-04-27 09:51 | 39.92559 | 123.09023 | 39962 ft | 441 kts | 216° |
| 2026-04-27 09:51 | 39.87206 | 123.05135 | 39948 ft | 440 kts | 216° |
| 2026-04-27 09:52 | 39.81867 | 123.01265 | 39945 ft | 440 kts | 216° |
| 2026-04-27 09:52 | 39.76529 | 122.97406 | 39959 ft | 439 kts | 216° |
| 2026-04-27 09:53 | 39.71228 | 122.93578 | 39948 ft | 438 kts | 216° |
| 2026-04-27 09:53 | 39.65875 | 122.89722 | 39934 ft | 439 kts | 216° |
| 2026-04-27 09:54 | 39.60566 | 122.85899 | 39947 ft | 439 kts | 216° |
| 2026-04-27 09:54 | 39.55213 | 122.82057 | 39954 ft | 438 kts | 216° |
| 2026-04-27 09:55 | 39.49881 | 122.78237 | 39953 ft | 438 kts | 216° |
| 2026-04-27 09:55 | 39.41904 | 122.72532 | 39943 ft | 437 kts | 216° |
| 2026-04-27 09:56 | 39.36556 | 122.68714 | 39972 ft | 438 kts | 217° |
| 2026-04-27 09:56 | 39.31226 | 122.64919 | 39949 ft | 437 kts | 217° |
| 2026-04-27 09:57 | 39.25954 | 122.61095 | 39960 ft | 434 kts | 219° |
| 2026-04-27 09:57 | 39.20829 | 122.56992 | 39947 ft | 433 kts | 220° |
| 2026-04-27 09:58 | 39.15719 | 122.52909 | 39942 ft | 432 kts | 220° |
| 2026-04-27 09:58 | 39.10639 | 122.48857 | 39947 ft | 432 kts | 220° |
| 2026-04-27 09:59 | 39.05512 | 122.44775 | 39945 ft | 431 kts | 220° |
| 2026-04-27 09:59 | 39.00433 | 122.40734 | 39950 ft | 432 kts | 220° |
| 2026-04-27 10:00 | 38.95315 | 122.36671 | 39968 ft | 432 kts | 220° |
| 2026-04-27 10:00 | 38.90197 | 122.32616 | 39954 ft | 431 kts | 220° |
| 2026-04-27 10:01 | 38.85109 | 122.28585 | 39954 ft | 430 kts | 219° |
| 2026-04-27 10:01 | 38.80007 | 122.24560 | 39956 ft | 429 kts | 220° |
| 2026-04-27 10:02 | 38.75087 | 122.20354 | 39945 ft | 423 kts | 226° |
| 2026-04-27 10:02 | 38.70763 | 122.15348 | 39954 ft | 414 kts | 233° |
| 2026-04-27 10:03 | 38.67149 | 122.09692 | 39946 ft | 407 kts | 241° |
| 2026-04-27 10:03 | 38.64296 | 122.03572 | 39960 ft | 401 kts | 248° |
| 2026-04-27 10:04 | 38.61769 | 121.97236 | 39977 ft | 399 kts | 248° |
| 2026-04-27 10:04 | 38.59261 | 121.90924 | 39958 ft | 398 kts | 248° |
| 2026-04-27 10:05 | 38.56763 | 121.84627 | 39967 ft | 397 kts | 248° |
| 2026-04-27 10:05 | 38.54267 | 121.78336 | 39973 ft | 398 kts | 248° |
| 2026-04-27 10:06 | 38.51778 | 121.72083 | 39954 ft | 397 kts | 248° |
| 2026-04-27 10:06 | 38.49273 | 121.65797 | 39966 ft | 397 kts | 249° |
| 2026-04-27 10:07 | 38.46776 | 121.59538 | 39964 ft | 397 kts | 249° |
| 2026-04-27 10:07 | 38.44033 | 121.53369 | 39990 ft | 401 kts | 243° |
| 2026-04-27 10:08 | 38.40674 | 121.47690 | 39978 ft | 408 kts | 236° |
| 2026-04-27 10:08 | 38.36676 | 121.42529 | 39989 ft | 412 kts | 230° |
| 2026-04-27 10:09 | 38.32070 | 121.38009 | 39982 ft | 421 kts | 224° |
| 2026-04-27 10:09 | 38.27250 | 121.33792 | 39987 ft | 419 kts | 223° |
| 2026-04-27 10:10 | 38.22431 | 121.29629 | 39992 ft | 420 kts | 223° |
| 2026-04-27 10:10 | 38.17590 | 121.25484 | 39985 ft | 420 kts | 223° |
| 2026-04-27 10:11 | 38.12769 | 121.21359 | 39993 ft | 419 kts | 223° |
| 2026-04-27 10:11 | 38.07923 | 121.17222 | 40003 ft | 418 kts | 223° |
| 2026-04-27 10:12 | 38.03137 | 121.13142 | 39994 ft | 417 kts | 224° |
| 2026-04-27 10:12 | 37.98341 | 121.09056 | 39997 ft | 415 kts | 223° |
| 2026-04-27 10:13 | 37.93538 | 121.04980 | 39983 ft | 415 kts | 223° |
| 2026-04-27 10:13 | 37.88765 | 121.00928 | 40034 ft | 415 kts | 224° |
| 2026-04-27 10:14 | 37.83963 | 120.96863 | 40025 ft | 414 kts | 224° |
| 2026-04-27 10:14 | 37.79159 | 120.92799 | 40011 ft | 413 kts | 224° |
| 2026-04-27 10:15 | 37.74395 | 120.88775 | 40007 ft | 412 kts | 225° |
| 2026-04-27 10:15 | 37.69642 | 120.84765 | 39991 ft | 412 kts | 224° |
| 2026-04-27 10:16 | 37.64804 | 120.80869 | 39998 ft | 417 kts | 221° |
| 2026-04-27 10:16 | 37.59518 | 120.77577 | 40025 ft | 427 kts | 215° |
| 2026-04-27 10:17 | 37.53835 | 120.75078 | 40054 ft | 438 kts | 208° |
| 2026-04-27 10:17 | 37.47801 | 120.73453 | 40046 ft | 450 kts | 202° |
| 2026-04-27 10:18 | 37.41610 | 120.72279 | 40014 ft | 450 kts | 202° |
| 2026-04-27 10:18 | 37.35392 | 120.71103 | 40029 ft | 448 kts | 202° |
| 2026-04-27 10:19 | 37.29213 | 120.69943 | 40025 ft | 450 kts | 202° |
| 2026-04-27 10:19 | 37.23052 | 120.68784 | 40037 ft | 449 kts | 203° |
| 2026-04-27 10:20 | 37.16831 | 120.67619 | 40050 ft | 451 kts | 203° |
| 2026-04-27 10:20 | 37.10644 | 120.66462 | 40041 ft | 450 kts | 203° |
| 2026-04-27 10:21 | 37.04427 | 120.65296 | 40057 ft | 451 kts | 204° |
| 2026-04-27 10:21 | 36.98238 | 120.64144 | 40039 ft | 448 kts | 205° |
| 2026-04-27 10:22 | 36.92199 | 120.62603 | 40023 ft | 436 kts | 210° |
| 2026-04-27 10:22 | 36.86471 | 120.60381 | 40019 ft | 431 kts | 215° |
| 2026-04-27 10:23 | 36.80790 | 120.57950 | 40002 ft | 429 kts | 214° |
| 2026-04-27 10:23 | 36.75125 | 120.55541 | 40035 ft | 432 kts | 214° |
| 2026-04-27 10:24 | 36.69455 | 120.53136 | 40002 ft | 431 kts | 215° |
| 2026-04-27 10:24 | 36.63753 | 120.50712 | 40050 ft | 433 kts | 215° |
| 2026-04-27 10:25 | 36.58048 | 120.48290 | 40009 ft | 432 kts | 214° |
| 2026-04-27 10:25 | 36.52303 | 120.46017 | 40040 ft | 434 kts | 213° |
| 2026-04-27 10:26 | 36.46469 | 120.43784 | 40035 ft | 436 kts | 213° |
| 2026-04-27 10:26 | 36.40650 | 120.41554 | 40020 ft | 437 kts | 213° |
| 2026-04-27 10:27 | 36.34822 | 120.39310 | 40001 ft | 437 kts | 213° |
| 2026-04-27 10:27 | 36.28978 | 120.37138 | 40014 ft | 446 kts | 210° |
| 2026-04-27 10:28 | 36.22852 | 120.35452 | 40034 ft | 452 kts | 207° |
| 2026-04-27 10:28 | 36.16729 | 120.33874 | 40039 ft | 450 kts | 207° |
| 2026-04-27 10:29 | 36.10538 | 120.32275 | 40029 ft | 452 kts | 207° |
| 2026-04-27 10:29 | 36.04291 | 120.30930 | 40005 ft | 466 kts | 200° |
| 2026-04-27 10:30 | 36.01046 | 120.30709 | 40013 ft | 479 kts | 195° |
| 2026-04-27 10:30 | 35.97628 | 120.30878 | 40017 ft | 491 kts | 188° |
| 2026-04-27 10:30 | 35.94203 | 120.31464 | 40005 ft | 506 kts | 182° |
| 2026-04-27 10:30 | 35.90723 | 120.32508 | 39997 ft | 518 kts | 175° |
| 2026-04-27 10:31 | 35.83901 | 120.35671 | 39993 ft | 529 kts | 169° |
| 2026-04-27 10:31 | 35.77116 | 120.39113 | 39998 ft | 528 kts | 169° |
| 2026-04-27 10:32 | 35.70279 | 120.42500 | 39996 ft | 530 kts | 169° |
| 2026-04-27 10:32 | 35.63441 | 120.45858 | 39990 ft | 528 kts | 169° |
| 2026-04-27 10:33 | 35.56625 | 120.49185 | 39992 ft | 529 kts | 169° |
| 2026-04-27 10:33 | 35.49797 | 120.52515 | 39987 ft | 528 kts | 169° |
| 2026-04-27 10:34 | 35.42971 | 120.55833 | 39989 ft | 525 kts | 169° |
| 2026-04-27 10:34 | 35.36177 | 120.59100 | 39992 ft | 527 kts | 169° |
| 2026-04-27 10:35 | 35.29383 | 120.62402 | 39986 ft | 529 kts | 168° |
| 2026-04-27 10:35 | 35.22506 | 120.65753 | 39978 ft | 529 kts | 169° |
| 2026-04-27 10:36 | 35.15671 | 120.69076 | 39985 ft | 528 kts | 169° |
| 2026-04-27 10:36 | 35.08904 | 120.72368 | 39991 ft | 527 kts | 168° |
| 2026-04-27 10:37 | 35.02108 | 120.75697 | 39988 ft | 524 kts | 169° |
| 2026-04-27 10:37 | 34.95323 | 120.78993 | 39985 ft | 526 kts | 168° |
| 2026-04-27 10:38 | 34.88510 | 120.82315 | 39985 ft | 525 kts | 168° |
| 2026-04-27 10:38 | 34.81713 | 120.85622 | 39988 ft | 524 kts | 168° |
| 2026-04-27 10:39 | 34.74983 | 120.88890 | 39989 ft | 523 kts | 168° |
| 2026-04-27 10:39 | 34.68183 | 120.92181 | 39988 ft | 521 kts | 168° |
| 2026-04-27 10:40 | 34.61471 | 120.95425 | 39992 ft | 521 kts | 168° |
| 2026-04-27 10:40 | 34.54718 | 120.98683 | 39991 ft | 520 kts | 168° |
| 2026-04-27 10:41 | 34.48008 | 121.01917 | 39987 ft | 521 kts | 168° |
| 2026-04-27 10:41 | 34.41230 | 121.05175 | 39988 ft | 521 kts | 168° |
| 2026-04-27 10:42 | 34.34522 | 121.08401 | 39991 ft | 519 kts | 168° |
| 2026-04-27 10:42 | 34.27795 | 121.11620 | 39987 ft | 520 kts | 167° |
| 2026-04-27 10:43 | 34.21112 | 121.14825 | 39991 ft | 516 kts | 168° |
| 2026-04-27 10:43 | 34.14377 | 121.18041 | 39988 ft | 518 kts | 168° |
| 2026-04-27 10:44 | 34.07686 | 121.21228 | 39980 ft | 519 kts | 168° |
| 2026-04-27 10:44 | 34.00994 | 121.24415 | 39983 ft | 517 kts | 167° |
| 2026-04-27 10:45 | 33.94310 | 121.27593 | 39994 ft | 516 kts | 167° |
| 2026-04-27 10:45 | 33.87616 | 121.30770 | 39992 ft | 516 kts | 167° |
| 2026-04-27 10:46 | 33.80914 | 121.33947 | 39979 ft | 516 kts | 168° |
| 2026-04-27 10:46 | 33.74244 | 121.37106 | 39986 ft | 514 kts | 167° |
| 2026-04-27 10:47 | 33.67598 | 121.40247 | 39984 ft | 513 kts | 167° |
| 2026-04-27 10:47 | 33.60979 | 121.43559 | 39985 ft | 516 kts | 165° |
| 2026-04-27 10:48 | 33.54391 | 121.47008 | 39987 ft | 516 kts | 165° |
| 2026-04-27 10:48 | 33.47797 | 121.50437 | 39980 ft | 514 kts | 165° |
| 2026-04-27 10:49 | 33.41190 | 121.53844 | 39987 ft | 514 kts | 165° |
| 2026-04-27 10:49 | 33.34639 | 121.57215 | 39991 ft | 514 kts | 165° |
| 2026-04-27 10:50 | 33.28022 | 121.60250 | 39992 ft | 504 kts | 171° |
| 2026-04-27 10:50 | 33.21274 | 121.62301 | 39987 ft | 495 kts | 179° |
| 2026-04-27 10:51 | 33.14509 | 121.63387 | 39991 ft | 487 kts | 184° |
| 2026-04-27 10:51 | 33.07785 | 121.64168 | 39987 ft | 487 kts | 184° |
| 2026-04-27 10:52 | 33.01026 | 121.64971 | 39992 ft | 486 kts | 184° |
| 2026-04-27 10:52 | 32.94281 | 121.65778 | 39994 ft | 483 kts | 184° |
| 2026-04-27 10:53 | 32.84254 | 121.66985 | 39996 ft | 483 kts | 184° |
| 2026-04-27 10:54 | 32.77596 | 121.67787 | 39997 ft | 482 kts | 184° |
| 2026-04-27 10:54 | 32.70914 | 121.68585 | 39997 ft | 485 kts | 184° |
| 2026-04-27 10:55 | 32.64173 | 121.69395 | 39999 ft | 484 kts | 184° |
| 2026-04-27 10:55 | 32.57473 | 121.70201 | 39997 ft | 482 kts | 184° |
| 2026-04-27 10:56 | 32.50807 | 121.70995 | 40000 ft | 483 kts | 184° |
| 2026-04-27 10:56 | 32.44086 | 121.71797 | 40003 ft | 484 kts | 183° |
| 2026-04-27 10:57 | 32.37386 | 121.72598 | 40004 ft | 481 kts | 183° |
| 2026-04-27 10:57 | 32.30696 | 121.73395 | 40004 ft | 483 kts | 183° |
| 2026-04-27 10:58 | 32.24000 | 121.74191 | 40003 ft | 482 kts | 183° |
| 2026-04-27 10:58 | 32.17344 | 121.74983 | 40008 ft | 481 kts | 183° |
| 2026-04-27 10:59 | 32.10628 | 121.75779 | 40006 ft | 482 kts | 183° |
| 2026-04-27 10:59 | 32.03946 | 121.76570 | 40007 ft | 482 kts | 182° |
| 2026-04-27 11:00 | 31.93963 | 121.77756 | 40009 ft | 480 kts | 182° |
| 2026-04-27 11:00 | 31.87299 | 121.78542 | 40000 ft | 479 kts | 182° |
| 2026-04-27 11:01 | 31.80653 | 121.79344 | 40005 ft | 477 kts | 182° |
| 2026-04-27 11:01 | 31.74023 | 121.80150 | 40005 ft | 477 kts | 182° |
| 2026-04-27 11:02 | 31.67416 | 121.80952 | 40001 ft | 477 kts | 182° |
| 2026-04-27 11:02 | 31.60825 | 121.81758 | 40008 ft | 476 kts | 182° |
| 2026-04-27 11:03 | 31.54223 | 121.82559 | 40004 ft | 475 kts | 182° |
| 2026-04-27 11:03 | 31.47625 | 121.83285 | 39997 ft | 468 kts | 188° |
| 2026-04-27 11:04 | 31.44474 | 121.82868 | 39998 ft | 450 kts | 202° |
| 2026-04-27 11:04 | 31.41583 | 121.81601 | 40006 ft | 436 kts | 215° |
| 2026-04-27 11:04 | 31.39080 | 121.79625 | 40004 ft | 424 kts | 227° |
| 2026-04-27 11:04 | 31.37089 | 121.77147 | 40003 ft | 414 kts | 239° |
| 2026-04-27 11:05 | 31.35631 | 121.74284 | 40004 ft | 407 kts | 250° |
| 2026-04-27 11:05 | 31.34734 | 121.71191 | 40005 ft | 404 kts | 260° |
| 2026-04-27 11:05 | 31.33651 | 121.64738 | 40002 ft | 403 kts | 261° |
| 2026-04-27 11:06 | 31.32605 | 121.58336 | 40001 ft | 403 kts | 262° |
| 2026-04-27 11:06 | 31.31562 | 121.51911 | 39996 ft | 404 kts | 261° |
| 2026-04-27 11:07 | 31.30400 | 121.45502 | 39992 ft | 405 kts | 255° |
| 2026-04-27 11:07 | 31.29264 | 121.42445 | 39991 ft | 411 kts | 244° |
| 2026-04-27 11:07 | 31.27595 | 121.39681 | 39991 ft | 419 kts | 234° |
| 2026-04-27 11:08 | 31.25470 | 121.37348 | 39994 ft | 428 kts | 223° |
| 2026-04-27 11:08 | 31.22859 | 121.35491 | 39992 ft | 439 kts | 211° |
| 2026-04-27 11:08 | 31.19941 | 121.34312 | 39995 ft | 451 kts | 199° |
| 2026-04-27 11:08 | 31.16797 | 121.33826 | 39994 ft | 461 kts | 190° |
| 2026-04-27 11:09 | 31.10383 | 121.33601 | 39989 ft | 459 kts | 189° |
| 2026-04-27 11:09 | 31.04034 | 121.32916 | 39986 ft | 455 kts | 193° |
| 2026-04-27 11:10 | 30.97737 | 121.32072 | 39986 ft | 455 kts | 193° |
| 2026-04-27 11:10 | 30.91434 | 121.31196 | 39979 ft | 454 kts | 194° |
| 2026-04-27 11:11 | 30.85160 | 121.30314 | 39976 ft | 452 kts | 194° |
| 2026-04-27 11:11 | 30.78868 | 121.29427 | 39977 ft | 452 kts | 194° |
| 2026-04-27 11:12 | 30.72620 | 121.28546 | 39974 ft | 452 kts | 194° |
| 2026-04-27 11:12 | 30.66375 | 121.27667 | 39971 ft | 451 kts | 193° |
| 2026-04-27 11:13 | 30.60159 | 121.26795 | 39983 ft | 451 kts | 194° |
| 2026-04-27 11:13 | 30.53917 | 121.25921 | 39970 ft | 449 kts | 193° |
| 2026-04-27 11:14 | 30.47710 | 121.25052 | 39975 ft | 448 kts | 194° |
| 2026-04-27 11:14 | 30.41510 | 121.24208 | 39975 ft | 449 kts | 193° |
| 2026-04-27 11:15 | 30.35310 | 121.23406 | 39976 ft | 447 kts | 194° |
| 2026-04-27 11:15 | 30.29229 | 121.22106 | 39970 ft | 439 kts | 201° |
| 2026-04-27 11:16 | 30.23416 | 121.20062 | 39975 ft | 434 kts | 207° |
| 2026-04-27 11:16 | 30.17884 | 121.17311 | 39976 ft | 428 kts | 213° |
| 2026-04-27 11:17 | 30.12663 | 121.14106 | 39969 ft | 426 kts | 214° |
| 2026-04-27 11:17 | 30.07450 | 121.10879 | 39974 ft | 425 kts | 214° |
| 2026-04-27 11:18 | 30.02256 | 121.07662 | 39972 ft | 424 kts | 214° |
| 2026-04-27 11:18 | 29.97049 | 121.04445 | 39987 ft | 424 kts | 214° |
| 2026-04-27 11:19 | 29.91827 | 121.01223 | 39994 ft | 425 kts | 214° |
| 2026-04-27 11:19 | 29.86616 | 120.98013 | 40009 ft | 426 kts | 213° |
| 2026-04-27 11:20 | 29.81389 | 120.94800 | 40003 ft | 427 kts | 213° |
| 2026-04-27 11:20 | 29.76155 | 120.91585 | 40024 ft | 426 kts | 214° |
| 2026-04-27 11:21 | 29.70895 | 120.88357 | 40022 ft | 428 kts | 214° |
| 2026-04-27 11:21 | 29.65541 | 120.85302 | 40019 ft | 433 kts | 209° |
| 2026-04-27 11:22 | 29.59833 | 120.82896 | 40009 ft | 440 kts | 202° |
| 2026-04-27 11:22 | 29.53839 | 120.81250 | 40006 ft | 445 kts | 196° |
| 2026-04-27 11:23 | 29.47669 | 120.80384 | 40002 ft | 450 kts | 192° |
| 2026-04-27 11:23 | 29.41397 | 120.79731 | 40016 ft | 451 kts | 191° |
| 2026-04-27 11:24 | 29.35136 | 120.79085 | 40022 ft | 451 kts | 191° |
| 2026-04-27 11:24 | 29.28883 | 120.78437 | 40036 ft | 451 kts | 191° |
| 2026-04-27 11:25 | 29.22617 | 120.77787 | 40043 ft | 451 kts | 191° |
| 2026-04-27 11:25 | 29.16367 | 120.77141 | 40039 ft | 451 kts | 191° |
| 2026-04-27 11:26 | 29.10085 | 120.76491 | 40048 ft | 453 kts | 191° |
| 2026-04-27 11:26 | 29.03828 | 120.75846 | 40040 ft | 453 kts | 191° |
| 2026-04-27 11:27 | 28.97562 | 120.75201 | 40038 ft | 453 kts | 191° |
| 2026-04-27 11:27 | 28.91274 | 120.74559 | 40047 ft | 452 kts | 191° |
| 2026-04-27 11:28 | 28.84969 | 120.73908 | 40051 ft | 452 kts | 191° |
| 2026-04-27 11:28 | 28.78749 | 120.73225 | 40057 ft | 452 kts | 191° |
| 2026-04-27 11:29 | 28.72494 | 120.72536 | 40056 ft | 451 kts | 191° |
| 2026-04-27 11:29 | 28.66228 | 120.71863 | 40058 ft | 452 kts | 191° |
| 2026-04-27 11:30 | 28.59971 | 120.71236 | 40065 ft | 451 kts | 191° |
| 2026-04-27 11:30 | 28.53702 | 120.70610 | 40073 ft | 450 kts | 191° |
| 2026-04-27 11:31 | 28.47467 | 120.69986 | 40081 ft | 450 kts | 191° |
| 2026-04-27 11:31 | 28.41263 | 120.69364 | 40072 ft | 450 kts | 191° |
| 2026-04-27 11:32 | 28.35006 | 120.68746 | 40060 ft | 449 kts | 191° |
| 2026-04-27 11:32 | 28.28810 | 120.68137 | 40049 ft | 448 kts | 191° |
| 2026-04-27 11:33 | 28.22602 | 120.67529 | 40041 ft | 448 kts | 191° |
| 2026-04-27 11:33 | 28.16404 | 120.66921 | 40032 ft | 448 kts | 191° |
| 2026-04-27 11:34 | 28.10226 | 120.66318 | 40031 ft | 447 kts | 191° |
| 2026-04-27 11:34 | 28.04058 | 120.65717 | 40027 ft | 446 kts | 191° |
| 2026-04-27 11:35 | 27.98001 | 120.65138 | 40026 ft | 446 kts | 191° |
| 2026-04-27 11:35 | 27.91684 | 120.64553 | 40020 ft | 446 kts | 191° |
| 2026-04-27 11:36 | 27.85512 | 120.63981 | 40016 ft | 446 kts | 191° |
| 2026-04-27 11:36 | 27.79421 | 120.62902 | 40018 ft | 439 kts | 199° |
| 2026-04-27 11:37 | 27.73612 | 120.60894 | 40024 ft | 432 kts | 206° |
| 2026-04-27 11:37 | 27.68180 | 120.58034 | 40021 ft | 429 kts | 214° |
| 2026-04-27 11:38 | 27.63113 | 120.54524 | 40027 ft | 426 kts | 217° |
| 2026-04-27 11:38 | 27.58084 | 120.50935 | 40031 ft | 427 kts | 216° |
| 2026-04-27 11:39 | 27.53078 | 120.47366 | 40034 ft | 427 kts | 217° |
| 2026-04-27 11:39 | 27.48035 | 120.43774 | 40044 ft | 427 kts | 217° |
| 2026-04-27 11:40 | 27.43011 | 120.40198 | 40040 ft | 428 kts | 217° |
| 2026-04-27 11:40 | 27.37949 | 120.36602 | 40046 ft | 428 kts | 216° |
| 2026-04-27 11:41 | 27.32911 | 120.33028 | 40044 ft | 429 kts | 216° |
| 2026-04-27 11:41 | 27.27854 | 120.29453 | 40038 ft | 429 kts | 216° |
| 2026-04-27 11:42 | 27.22787 | 120.25874 | 40029 ft | 430 kts | 216° |
| 2026-04-27 11:42 | 27.17707 | 120.22287 | 40040 ft | 430 kts | 216° |
| 2026-04-27 11:43 | 27.12633 | 120.18712 | 40058 ft | 430 kts | 216° |
| 2026-04-27 11:43 | 27.07569 | 120.15111 | 40069 ft | 431 kts | 216° |
| 2026-04-27 11:44 | 27.02509 | 120.11513 | 40075 ft | 431 kts | 216° |
| 2026-04-27 11:44 | 26.97449 | 120.07919 | 40081 ft | 431 kts | 216° |
| 2026-04-27 11:45 | 26.93214 | 120.04914 | 40067 ft | 432 kts | 216° |
| 2026-04-27 11:45 | 26.87275 | 120.00710 | 40073 ft | 433 kts | 216° |
| 2026-04-27 11:46 | 26.82185 | 119.97112 | 40057 ft | 432 kts | 216° |
| 2026-04-27 11:46 | 26.77117 | 119.93536 | 40048 ft | 434 kts | 216° |
| 2026-04-27 11:47 | 26.71947 | 119.89890 | 40033 ft | 435 kts | 216° |
| 2026-04-27 11:47 | 26.66840 | 119.86292 | 40046 ft | 435 kts | 216° |
| 2026-04-27 11:48 | 26.61727 | 119.82696 | 40046 ft | 435 kts | 216° |
| 2026-04-27 11:48 | 26.56577 | 119.79079 | 40045 ft | 435 kts | 216° |
| 2026-04-27 11:49 | 26.51424 | 119.75463 | 40044 ft | 437 kts | 216° |
| 2026-04-27 11:49 | 26.48848 | 119.73656 | 39778 ft | 438 kts | 216° |
| 2026-04-27 11:49 | 26.46269 | 119.71847 | 39483 ft | 435 kts | 216° |
| 2026-04-27 11:50 | 26.43727 | 119.70064 | 39177 ft | 432 kts | 216° |
| 2026-04-27 11:50 | 26.41178 | 119.68276 | 38851 ft | 429 kts | 216° |
| 2026-04-27 11:50 | 26.38650 | 119.66506 | 38526 ft | 429 kts | 216° |
| 2026-04-27 11:50 | 26.36129 | 119.64738 | 38209 ft | 429 kts | 216° |
| 2026-04-27 11:51 | 26.33567 | 119.62943 | 37901 ft | 430 kts | 216° |
| 2026-04-27 11:51 | 26.31014 | 119.61156 | 37596 ft | 432 kts | 216° |
| 2026-04-27 11:51 | 26.25892 | 119.57661 | 37000 ft | 434 kts | 213° |
| 2026-04-27 11:52 | 26.23218 | 119.56087 | 36700 ft | 436 kts | 210° |
| 2026-04-27 11:52 | 26.20421 | 119.54655 | 36399 ft | 440 kts | 207° |
| 2026-04-27 11:52 | 26.17571 | 119.53407 | 36102 ft | 442 kts | 204° |
| 2026-04-27 11:52 | 26.14631 | 119.52325 | 35805 ft | 444 kts | 201° |
| 2026-04-27 11:53 | 26.11681 | 119.51316 | 35509 ft | 446 kts | 201° |
| 2026-04-27 11:53 | 26.08692 | 119.50299 | 35208 ft | 446 kts | 201° |
| 2026-04-27 11:53 | 26.05692 | 119.49277 | 34917 ft | 448 kts | 201° |
| 2026-04-27 11:53 | 26.02692 | 119.48256 | 34622 ft | 449 kts | 201° |
| 2026-04-27 11:54 | 25.99730 | 119.47250 | 34330 ft | 451 kts | 201° |
| 2026-04-27 11:54 | 25.96695 | 119.46218 | 34037 ft | 452 kts | 201° |
| 2026-04-27 11:54 | 25.93677 | 119.45193 | 33748 ft | 452 kts | 201° |
| 2026-04-27 11:54 | 25.90664 | 119.44169 | 33460 ft | 453 kts | 201° |
| 2026-04-27 11:55 | 25.87662 | 119.43150 | 33174 ft | 454 kts | 201° |
| 2026-04-27 11:55 | 25.84595 | 119.42109 | 32909 ft | 455 kts | 201° |
| 2026-04-27 11:55 | 25.81597 | 119.41007 | 32544 ft | 454 kts | 205° |
| 2026-04-27 11:55 | 25.78662 | 119.39637 | 32147 ft | 453 kts | 210° |
| 2026-04-27 11:56 | 25.75887 | 119.38038 | 31756 ft | 451 kts | 214° |
| 2026-04-27 11:56 | 25.73238 | 119.36197 | 31365 ft | 448 kts | 218° |
| 2026-04-27 11:56 | 25.70737 | 119.34132 | 30976 ft | 443 kts | 222° |
| 2026-04-27 11:56 | 25.68432 | 119.31893 | 30587 ft | 439 kts | 226° |
| 2026-04-27 11:57 | 25.66286 | 119.29483 | 30080 ft | 437 kts | 229° |
| 2026-04-27 11:57 | 25.64186 | 119.27024 | 29534 ft | 434 kts | 230° |
| 2026-04-27 11:57 | 25.62110 | 119.24579 | 28889 ft | 434 kts | 230° |
| 2026-04-27 11:57 | 25.60033 | 119.22134 | 28260 ft | 434 kts | 230° |
| 2026-04-27 11:58 | 25.57963 | 119.19697 | 27635 ft | 434 kts | 230° |
| 2026-04-27 11:58 | 25.55911 | 119.17288 | 27011 ft | 433 kts | 230° |
| 2026-04-27 11:58 | 25.53827 | 119.14841 | 26382 ft | 432 kts | 230° |
| 2026-04-27 11:58 | 25.51776 | 119.12439 | 25811 ft | 430 kts | 229° |
| 2026-04-27 11:59 | 25.49721 | 119.10035 | 25312 ft | 427 kts | 229° |
| 2026-04-27 11:59 | 25.47690 | 119.07658 | 24812 ft | 423 kts | 229° |
| 2026-04-27 11:59 | 25.45663 | 119.05288 | 24309 ft | 420 kts | 229° |
| 2026-04-27 11:59 | 25.43655 | 119.02940 | 23814 ft | 416 kts | 229° |
| 2026-04-27 12:00 | 25.41662 | 119.00612 | 23321 ft | 413 kts | 229° |
| 2026-04-27 12:00 | 25.39698 | 118.98317 | 22825 ft | 410 kts | 229° |
| 2026-04-27 12:00 | 25.37743 | 118.96037 | 22349 ft | 407 kts | 229° |
| 2026-04-27 12:00 | 25.35797 | 118.93768 | 21875 ft | 404 kts | 229° |
| 2026-04-27 12:01 | 25.33860 | 118.91506 | 21403 ft | 402 kts | 229° |
| 2026-04-27 12:01 | 25.31981 | 118.89251 | 20933 ft | 399 kts | 230° |
| 2026-04-27 12:01 | 25.30120 | 118.86988 | 20458 ft | 396 kts | 230° |
| 2026-04-27 12:01 | 25.28263 | 118.84730 | 19983 ft | 394 kts | 230° |
| 2026-04-27 12:02 | 25.26428 | 118.82503 | 19514 ft | 391 kts | 230° |
| 2026-04-27 12:02 | 25.24594 | 118.80281 | 19036 ft | 389 kts | 230° |
| 2026-04-27 12:02 | 25.22774 | 118.78078 | 18547 ft | 387 kts | 229° |
| 2026-04-27 12:02 | 25.20962 | 118.75887 | 18081 ft | 384 kts | 229° |
| 2026-04-27 12:03 | 25.19161 | 118.73713 | 17620 ft | 382 kts | 229° |
| 2026-04-27 12:03 | 25.17372 | 118.71555 | 17127 ft | 380 kts | 229° |
| 2026-04-27 12:03 | 25.15588 | 118.69403 | 16643 ft | 378 kts | 229° |
| 2026-04-27 12:03 | 25.13810 | 118.67261 | 16180 ft | 376 kts | 229° |
| 2026-04-27 12:04 | 25.12030 | 118.65116 | 15695 ft | 375 kts | 229° |
| 2026-04-27 12:04 | 25.10284 | 118.63013 | 15213 ft | 373 kts | 229° |
| 2026-04-27 12:04 | 25.08532 | 118.60918 | 14727 ft | 372 kts | 228° |
| 2026-04-27 12:04 | 25.06725 | 118.58832 | 14254 ft | 370 kts | 227° |
| 2026-04-27 12:05 | 25.04946 | 118.56795 | 13766 ft | 369 kts | 227° |
| 2026-04-27 12:05 | 25.03165 | 118.54758 | 13265 ft | 368 kts | 227° |
| 2026-04-27 12:05 | 25.01384 | 118.52715 | 12746 ft | 366 kts | 227° |
| 2026-04-27 12:05 | 24.99624 | 118.50697 | 12272 ft | 365 kts | 227° |
| 2026-04-27 12:06 | 24.97861 | 118.48675 | 11790 ft | 364 kts | 227° |
| 2026-04-27 12:06 | 24.96122 | 118.46680 | 11316 ft | 363 kts | 227° |
| 2026-04-27 12:06 | 24.94363 | 118.44665 | 10898 ft | 360 kts | 227° |
| 2026-04-27 12:06 | 24.92659 | 118.42711 | 10749 ft | 347 kts | 227° |
| 2026-04-27 12:07 | 24.91011 | 118.40824 | 10789 ft | 332 kts | 227° |
| 2026-04-27 12:07 | 24.89440 | 118.39026 | 10776 ft | 319 kts | 227° |
| 2026-04-27 12:07 | 24.87926 | 118.37292 | 10761 ft | 305 kts | 227° |
| 2026-04-27 12:07 | 24.86475 | 118.35632 | 10767 ft | 293 kts | 227° |
| 2026-04-27 12:08 | 24.85099 | 118.34036 | 10761 ft | 280 kts | 231° |
| 2026-04-27 12:08 | 24.84249 | 118.32172 | 10678 ft | 271 kts | 260° |
| 2026-04-27 12:08 | 24.84362 | 118.30119 | 10502 ft | 269 kts | 288° |
| 2026-04-27 12:08 | 24.85294 | 118.28368 | 10330 ft | 267 kts | 308° |
| 2026-04-27 12:09 | 24.86516 | 118.26811 | 10122 ft | 264 kts | 309° |
| 2026-04-27 12:09 | 24.87698 | 118.25281 | 9920 ft | 261 kts | 306° |
| 2026-04-27 12:09 | 24.88719 | 118.23645 | 9780 ft | 255 kts | 297° |
| 2026-04-27 12:09 | 24.89201 | 118.21793 | 9649 ft | 255 kts | 266° |
| 2026-04-27 12:10 | 24.88700 | 118.19927 | 9442 ft | 254 kts | 237° |
| 2026-04-27 12:10 | 24.87453 | 118.18551 | 9194 ft | 253 kts | 210° |
| 2026-04-27 12:10 | 24.85891 | 118.17674 | 8970 ft | 253 kts | 206° |
| 2026-04-27 12:10 | 24.84280 | 118.16821 | 8723 ft | 253 kts | 206° |
| 2026-04-27 12:11 | 24.82707 | 118.15981 | 8498 ft | 253 kts | 206° |
| 2026-04-27 12:11 | 24.81106 | 118.15114 | 8284 ft | 253 kts | 206° |
| 2026-04-27 12:11 | 24.79518 | 118.14246 | 8025 ft | 253 kts | 207° |
| 2026-04-27 12:11 | 24.77942 | 118.13378 | 7780 ft | 253 kts | 207° |
| 2026-04-27 12:12 | 24.76356 | 118.12503 | 7548 ft | 253 kts | 207° |
| 2026-04-27 12:12 | 24.74771 | 118.11627 | 7315 ft | 253 kts | 207° |
| 2026-04-27 12:12 | 24.73192 | 118.10754 | 7085 ft | 253 kts | 207° |
| 2026-04-27 12:12 | 24.71608 | 118.09876 | 6840 ft | 254 kts | 207° |
| 2026-04-27 12:13 | 24.70025 | 118.09000 | 6595 ft | 254 kts | 207° |
| 2026-04-27 12:13 | 24.68452 | 118.08130 | 6353 ft | 254 kts | 207° |
| 2026-04-27 12:13 | 24.66863 | 118.07252 | 6116 ft | 254 kts | 207° |
| 2026-04-27 12:13 | 24.65276 | 118.06374 | 5919 ft | 252 kts | 207° |
| 2026-04-27 12:14 | 24.63727 | 118.05517 | 5890 ft | 243 kts | 207° |
| 2026-04-27 12:14 | 24.62203 | 118.04675 | 5891 ft | 239 kts | 207° |
| 2026-04-27 12:14 | 24.60726 | 118.03859 | 5889 ft | 234 kts | 207° |
| 2026-04-27 12:14 | 24.59264 | 118.03051 | 5892 ft | 234 kts | 207° |
| 2026-04-27 12:15 | 24.57801 | 118.02243 | 5893 ft | 234 kts | 207° |
| 2026-04-27 12:15 | 24.56408 | 118.01296 | 5891 ft | 234 kts | 219° |
| 2026-04-27 12:15 | 24.55222 | 118.00051 | 5705 ft | 237 kts | 227° |
| 2026-04-27 12:15 | 24.54117 | 117.98705 | 5426 ft | 241 kts | 228° |
| 2026-04-27 12:16 | 24.52997 | 117.97313 | 5143 ft | 244 kts | 228° |
| 2026-04-27 12:16 | 24.51860 | 117.95910 | 4861 ft | 247 kts | 228° |
| 2026-04-27 12:16 | 24.50693 | 117.94482 | 4575 ft | 250 kts | 227° |
| 2026-04-27 12:16 | 24.49520 | 117.93052 | 4296 ft | 253 kts | 227° |
| 2026-04-27 12:17 | 24.48347 | 117.91625 | 4013 ft | 255 kts | 227° |
| 2026-04-27 12:17 | 24.47132 | 117.90202 | 3915 ft | 248 kts | 220° |
| 2026-04-27 12:17 | 24.45616 | 117.89466 | 3866 ft | 237 kts | 181° |
| 2026-04-27 12:17 | 24.44084 | 117.89928 | 3833 ft | 226 kts | 143° |
| 2026-04-27 12:18 | 24.42945 | 117.91081 | 3806 ft | 216 kts | 134° |
| 2026-04-27 12:18 | 24.41923 | 117.92233 | 3771 ft | 205 kts | 132° |
| 2026-04-27 12:18 | 24.41319 | 117.93549 | 3734 ft | 187 kts | 97° |
| 2026-04-27 12:18 | 24.41495 | 117.94888 | 3651 ft | 174 kts | 65° |
| 2026-04-27 12:19 | 24.42176 | 117.95982 | 3344 ft | 176 kts | 51° |
| 2026-04-27 12:19 | 24.42977 | 117.97014 | 3079 ft | 173 kts | 50° |
| 2026-04-27 12:19 | 24.43732 | 117.97990 | 2981 ft | 160 kts | 51° |
| 2026-04-27 12:19 | 24.44428 | 117.98914 | 2972 ft | 154 kts | 52° |
| 2026-04-27 12:20 | 24.45109 | 117.99822 | 2952 ft | 153 kts | 51° |
| 2026-04-27 12:20 | 24.45804 | 118.00735 | 2673 ft | 155 kts | 51° |
| 2026-04-27 12:20 | 24.46491 | 118.01660 | 2301 ft | 161 kts | 52° |
| 2026-04-27 12:20 | 24.47196 | 118.02638 | 2003 ft | 160 kts | 53° |
| 2026-04-27 12:21 | 24.47879 | 118.03595 | 1795 ft | 154 kts | 52° |
| 2026-04-27 12:21 | 24.48523 | 118.04503 | 1600 ft | 148 kts | 52° |
| 2026-04-27 12:21 | 24.49152 | 118.05387 | 1421 ft | 147 kts | 53° |
| 2026-04-27 12:21 | 24.49786 | 118.06278 | 1244 ft | 147 kts | 53° |
| 2026-04-27 12:22 | 24.50422 | 118.07171 | 1059 ft | 147 kts | 52° |
| 2026-04-27 12:22 | 24.51052 | 118.08054 | 870 ft | 146 kts | 53° |
| 2026-04-27 12:22 | 24.51680 | 118.08934 | 679 ft | 146 kts | 52° |
| 2026-04-27 12:22 | 24.52306 | 118.09810 | 490 ft | 145 kts | 53° |
| 2026-04-27 12:23 | 24.52930 | 118.10686 | 304 ft | 144 kts | 53° |
| 2026-04-27 12:23 | 24.53546 | 118.11548 | 126 ft | 144 kts | 53° |
| 2026-04-27 12:23 | 24.54143 | 118.12383 | 85 ft | 121 kts | 53° |
| 2026-04-27 12:23 | 24.54549 | 118.12952 | 85 ft | 65 kts | 52° |
| 2026-04-27 12:24 | 24.54760 | 118.13248 | 85 ft | 35 kts | 52° |
| 2026-04-27 12:24 | 24.54872 | 118.13409 | 84 ft | 21 kts | 58° |
| 2026-04-27 12:24 | 24.54920 | 118.13533 | 84 ft | 13 kts | 75° |
| 2026-04-27 12:24 | 24.54936 | 118.13628 | 84 ft | 11 kts | 81° |
| 2026-04-27 12:25 | 24.54940 | 118.13664 | 84 ft | 4 kts | 89° |
| 2026-04-27 12:25 | 24.54927 | 118.13696 | 84 ft | 5 kts | 134° |
| 2026-04-27 12:25 | 24.54886 | 118.13728 | 84 ft | 8 kts | 144° |
| 2026-04-27 12:25 | 24.54845 | 118.13762 | 84 ft | 5 kts | 142° |
| 2026-04-27 12:26 | 24.54811 | 118.13790 | 84 ft | 6 kts | 142° |
| 2026-04-27 12:26 | 24.54770 | 118.13825 | 84 ft | 8 kts | 142° |
| 2026-04-27 12:26 | 24.54733 | 118.13856 | 84 ft | 4 kts | 142° |
| 2026-04-27 12:26 | 24.54718 | 118.13869 | 84 ft | 0 kts | 142° |
| 2026-04-27 12:27 | 24.54713 | 118.13876 | 84 ft | 1 kts | 120° |
| 2026-04-27 12:27 | 24.54714 | 118.13891 | 84 ft | 2 kts | 64° |
| 2026-04-27 12:27 | 24.54722 | 118.13902 | 84 ft | 1 kts | 48° |
| 2026-04-27 12:27 | 24.54728 | 118.13908 | 84 ft | 2 kts | 49° |
| 2026-04-27 12:28 | 24.54740 | 118.13926 | 84 ft | 3 kts | 51° |
| 2026-04-27 12:28 | 24.54750 | 118.13939 | 84 ft | 1 kts | 51° |
| 2026-04-27 12:28 | 24.54759 | 118.13951 | 84 ft | 1 kts | 52° |
| 2026-04-27 12:28 | 24.54762 | 118.13956 | 84 ft | 0 kts | 52° |